createdAt,value
2019-03-23T00:00:53.848Z,22.77
2019-03-23T00:02:10.989Z,22.07
2019-03-23T00:03:28.224Z,21.25
2019-03-23T00:04:44.824Z,21.25
2019-03-23T00:06:01.342Z,21.75
2019-03-23T00:07:18.457Z,20.37
2019-03-23T00:08:35.701Z,20.75
2019-03-23T00:09:52.949Z,21.27
2019-03-23T00:11:10.081Z,21.27
2019-03-23T00:12:26.807Z,21.23
2019-03-23T00:13:43.899Z,21.95
2019-03-23T00:15:00.537Z,20.92
2019-03-23T00:16:17.739Z,16.42
2019-03-23T00:17:34.027Z,21.52
2019-03-23T00:18:50.855Z,22.70
2019-03-23T00:20:06.530Z,22.27
2019-03-23T00:21:31.062Z,21.85
2019-03-23T00:22:55.471Z,22.13
2019-03-23T00:24:12.104Z,21.85
2019-03-23T00:25:28.804Z,21.77
2019-03-23T00:26:45.419Z,22.02
2019-03-23T00:28:03.026Z,21.42
2019-03-23T00:29:19.584Z,21.37
2019-03-23T00:30:36.049Z,21.85
2019-03-23T00:31:52.527Z,21.73
2019-03-23T00:33:09.771Z,21.00
2019-03-23T00:34:26.272Z,21.02
2019-03-23T00:35:43.149Z,22.50
2019-03-23T00:36:59.616Z,22.60
2019-03-23T00:38:16.842Z,21.12
2019-03-23T00:39:33.307Z,20.15
2019-03-23T00:40:49.677Z,20.88
2019-03-23T00:42:06.191Z,21.17
2019-03-23T00:43:22.610Z,19.95
2019-03-23T00:44:39.275Z,22.82
2019-03-23T00:45:55.901Z,21.85
2019-03-23T00:47:12.448Z,22.25
2019-03-23T00:48:29.122Z,21.93
2019-03-23T00:49:46.017Z,21.10
2019-03-23T00:51:02.541Z,21.33
2019-03-23T00:52:19.083Z,20.60
2019-03-23T00:53:35.514Z,22.67
2019-03-23T00:54:51.878Z,21.37
2019-03-23T00:56:09.164Z,21.57
2019-03-23T00:57:25.574Z,21.60
2019-03-23T00:58:41.960Z,21.07
2019-03-23T00:59:58.910Z,21.35
2019-03-23T01:01:15.527Z,20.43
2019-03-23T01:02:32.353Z,21.55
2019-03-23T01:03:48.752Z,21.07
2019-03-23T01:05:05.740Z,21.20
2019-03-23T01:06:22.977Z,22.13
2019-03-23T01:07:42.112Z,20.62
2019-03-23T01:08:58.641Z,16.82
2019-03-23T01:10:15.187Z,22.55
2019-03-23T01:11:32.207Z,22.15
2019-03-23T01:12:49.277Z,21.60
2019-03-23T01:14:06.557Z,20.72
2019-03-23T01:15:23.439Z,22.50
2019-03-23T01:16:39.921Z,22.02
2019-03-23T01:17:56.321Z,21.50
2019-03-23T01:19:12.837Z,23.80
2019-03-23T01:20:30.033Z,22.50
2019-03-23T01:21:46.341Z,21.23
2019-03-23T01:23:02.682Z,22.48
2019-03-23T01:24:19.277Z,21.57
2019-03-23T01:25:35.654Z,21.40
2019-03-23T01:26:52.367Z,21.37
2019-03-23T01:28:08.769Z,20.37
2019-03-23T01:29:25.089Z,20.75
2019-03-23T01:30:42.116Z,20.90
2019-03-23T01:31:58.734Z,21.40
2019-03-23T01:33:15.180Z,22.90
2019-03-23T01:34:32.468Z,22.87
2019-03-23T01:35:49.669Z,21.80
2019-03-23T01:37:06.941Z,22.10
2019-03-23T01:38:23.294Z,21.48
2019-03-23T01:39:28.900Z,22.55
2019-03-23T01:40:53.378Z,22.10
2019-03-23T01:42:09.670Z,22.60
2019-03-23T01:43:26.122Z,22.05
2019-03-23T01:44:42.404Z,23.38
2019-03-23T01:45:59.077Z,22.70
2019-03-23T01:47:15.575Z,22.65
2019-03-23T01:48:31.838Z,22.90
2019-03-23T01:49:48.238Z,22.35
2019-03-23T01:51:04.677Z,22.52
2019-03-23T01:52:21.886Z,23.27
2019-03-23T01:53:38.370Z,23.85
2019-03-23T01:54:54.897Z,23.22
2019-03-23T01:56:12.021Z,24.47
2019-03-23T01:57:17.705Z,25.17
2019-03-23T01:58:53.006Z,23.60
2019-03-23T02:01:53.831Z,23.40
2019-03-23T02:03:10.448Z,23.42
2019-03-23T02:04:27.674Z,23.07
2019-03-23T02:05:44.063Z,24.20
2019-03-23T02:06:49.664Z,24.92
2019-03-23T02:07:55.193Z,25.50
2019-03-23T02:09:00.758Z,24.25
2019-03-23T02:10:08.253Z,26.12
2019-03-23T02:11:14.243Z,25.88
2019-03-23T02:12:20.030Z,26.37
2019-03-23T02:13:25.676Z,25.62
2019-03-23T02:14:31.362Z,23.98
2019-03-23T02:15:37.053Z,24.10
2019-03-23T02:16:42.716Z,27.00
2019-03-23T02:17:48.279Z,24.37
2019-03-23T02:18:53.919Z,25.55
2019-03-23T02:19:59.477Z,25.43
2019-03-23T02:21:05.201Z,24.82
2019-03-23T02:22:10.868Z,25.45
2019-03-23T02:23:16.437Z,24.23
2019-03-23T02:24:22.080Z,26.27
2019-03-23T02:25:27.730Z,23.67
2019-03-23T02:26:33.439Z,24.15
2019-03-23T02:27:39.092Z,24.47
2019-03-23T02:28:44.809Z,24.32
2019-03-23T02:29:50.401Z,24.40
2019-03-23T02:30:56.052Z,24.80
2019-03-23T02:32:01.968Z,23.90
2019-03-23T02:33:07.626Z,23.85
2019-03-23T02:34:13.274Z,24.10
2019-03-23T02:35:18.925Z,26.15
2019-03-23T02:36:24.608Z,25.62
2019-03-23T02:37:30.165Z,24.87
2019-03-23T02:38:35.801Z,24.47
2019-03-23T02:39:41.461Z,25.00
2019-03-23T02:40:48.193Z,26.50
2019-03-23T02:41:53.783Z,25.20
2019-03-23T02:42:59.482Z,26.50
2019-03-23T02:44:05.172Z,24.82
2019-03-23T02:45:10.947Z,24.37
2019-03-23T02:46:16.580Z,25.02
2019-03-23T02:47:22.553Z,24.57
2019-03-23T02:48:28.177Z,22.50
2019-03-23T02:49:34.822Z,24.40
2019-03-23T02:50:40.387Z,24.55
2019-03-23T02:51:46.019Z,25.32
2019-03-23T02:52:51.603Z,23.52
2019-03-23T02:53:57.291Z,25.02
2019-03-23T02:55:02.900Z,24.87
2019-03-23T02:56:08.574Z,25.52
2019-03-23T02:57:14.278Z,24.92
2019-03-23T02:58:19.966Z,25.00
2019-03-23T02:59:25.598Z,23.92
2019-03-23T03:00:31.320Z,24.75
2019-03-23T03:01:37.002Z,24.07
2019-03-23T03:02:42.648Z,22.67
2019-03-23T03:03:48.258Z,24.43
2019-03-23T03:04:53.846Z,23.50
2019-03-23T03:05:59.412Z,24.57
2019-03-23T03:07:05.079Z,22.90
2019-03-23T03:08:10.757Z,23.95
2019-03-23T03:09:16.438Z,22.85
2019-03-23T03:10:39.506Z,24.82
2019-03-23T03:11:45.056Z,23.18
2019-03-23T03:12:50.764Z,23.95
2019-03-23T03:13:56.402Z,23.73
2019-03-23T03:15:02.069Z,23.42
2019-03-23T03:16:07.702Z,22.15
2019-03-23T03:17:13.331Z,23.12
2019-03-23T03:18:18.973Z,24.05
2019-03-23T03:19:24.545Z,22.55
2019-03-23T03:20:30.180Z,23.30
2019-03-23T03:21:35.753Z,24.30
2019-03-23T03:22:42.484Z,23.73
2019-03-23T03:23:48.137Z,24.10
2019-03-23T03:24:53.696Z,22.95
2019-03-23T03:25:59.311Z,24.12
2019-03-23T03:27:04.904Z,22.65
2019-03-23T03:28:10.571Z,24.72
2019-03-23T03:29:16.190Z,25.65
2019-03-23T03:30:21.829Z,23.75
2019-03-23T03:31:27.449Z,24.92
2019-03-23T03:32:32.990Z,25.08
2019-03-23T03:33:38.629Z,24.72
2019-03-23T03:34:44.256Z,24.50
2019-03-23T03:35:49.907Z,23.30
2019-03-23T03:36:55.489Z,23.92
2019-03-23T03:38:01.109Z,24.15
2019-03-23T03:39:08.279Z,22.48
2019-03-23T03:40:13.942Z,25.60
2019-03-23T03:41:19.577Z,23.07
2019-03-23T03:42:25.293Z,24.25
2019-03-23T03:43:30.891Z,25.80
2019-03-23T03:44:36.498Z,25.60
2019-03-23T03:45:42.214Z,24.63
2019-03-23T03:46:47.831Z,26.45
2019-03-23T03:47:54.416Z,24.90
2019-03-23T03:49:11.834Z,26.85
2019-03-23T03:50:07.714Z,26.25
2019-03-23T03:51:14.460Z,26.93
2019-03-23T03:52:20.097Z,25.10
2019-03-23T03:53:25.749Z,25.20
2019-03-23T03:54:31.436Z,24.80
2019-03-23T03:55:36.989Z,25.95
2019-03-23T03:56:42.532Z,27.42
2019-03-23T03:57:49.190Z,25.77
2019-03-23T03:58:55.169Z,26.02
2019-03-23T04:00:00.800Z,26.95
2019-03-23T04:01:06.373Z,25.70
2019-03-23T04:02:12.025Z,25.05
2019-03-23T04:03:17.657Z,25.77
2019-03-23T04:04:23.294Z,26.42
2019-03-23T04:05:28.934Z,24.77
2019-03-23T04:06:34.536Z,26.77
2019-03-23T04:07:40.122Z,26.55
2019-03-23T04:08:45.791Z,23.73
2019-03-23T04:09:51.466Z,23.38
2019-03-23T04:10:57.130Z,23.87
2019-03-23T04:12:02.770Z,24.40
2019-03-23T04:13:08.409Z,25.27
2019-03-23T04:14:14.065Z,25.30
2019-03-23T04:15:19.710Z,25.82
2019-03-23T04:16:25.337Z,25.50
2019-03-23T04:17:30.903Z,25.00
2019-03-23T04:18:36.488Z,24.67
2019-03-23T04:19:42.151Z,25.57
2019-03-23T04:20:47.803Z,25.52
2019-03-23T04:21:53.374Z,25.25
2019-03-23T04:22:59.027Z,25.92
2019-03-23T04:24:04.701Z,24.27
2019-03-23T04:25:10.718Z,25.30
2019-03-23T04:26:16.412Z,26.33
2019-03-23T04:27:22.025Z,23.87
2019-03-23T04:28:27.646Z,23.75
2019-03-23T04:29:33.425Z,25.43
2019-03-23T04:30:39.193Z,24.70
2019-03-23T04:31:45.818Z,25.02
2019-03-23T04:32:51.488Z,24.12
2019-03-23T04:33:57.156Z,25.27
2019-03-23T04:35:02.847Z,25.65
2019-03-23T04:36:08.473Z,24.80
2019-03-23T04:37:14.157Z,27.00
2019-03-23T04:38:23.106Z,25.10
2019-03-23T04:39:27.144Z,26.10
2019-03-23T04:40:32.704Z,24.82
2019-03-23T04:41:38.340Z,24.70
2019-03-23T04:42:43.867Z,25.10
2019-03-23T04:43:49.439Z,23.50
2019-03-23T04:44:55.097Z,25.23
2019-03-23T04:46:00.692Z,24.55
2019-03-23T04:47:06.375Z,26.70
2019-03-23T04:48:11.932Z,25.50
2019-03-23T04:49:17.494Z,22.73
2019-03-23T04:50:23.074Z,24.47
2019-03-23T04:51:28.686Z,25.80
2019-03-23T04:52:34.388Z,24.30
2019-03-23T04:53:39.920Z,24.43
2019-03-23T04:54:45.566Z,26.07
2019-03-23T04:55:51.240Z,24.27
2019-03-23T04:56:56.882Z,24.90
2019-03-23T04:58:02.445Z,24.15
2019-03-23T04:59:08.068Z,25.12
2019-03-23T05:00:14.622Z,23.98
2019-03-23T05:01:20.305Z,24.12
2019-03-23T05:02:25.884Z,24.10
2019-03-23T05:03:31.593Z,28.00
2019-03-23T05:04:37.239Z,27.75
2019-03-23T05:05:42.881Z,27.10
2019-03-23T05:06:48.519Z,26.60
2019-03-23T05:07:54.134Z,26.55
2019-03-23T05:08:59.792Z,26.05
2019-03-23T05:10:06.505Z,25.95
2019-03-23T05:11:12.172Z,25.32
2019-03-23T05:12:17.926Z,25.52
2019-03-23T05:13:23.504Z,28.50
2019-03-23T05:14:29.155Z,26.93
2019-03-23T05:15:34.844Z,27.15
2019-03-23T05:16:40.524Z,26.60
2019-03-23T05:17:46.163Z,27.93
2019-03-23T05:18:51.817Z,27.90
2019-03-23T05:19:57.499Z,29.10
2019-03-23T05:21:03.233Z,27.82
2019-03-23T05:22:08.865Z,28.65
2019-03-23T05:23:14.445Z,29.60
2019-03-23T05:24:20.024Z,30.68
2019-03-23T05:25:26.620Z,30.43
2019-03-23T05:26:32.233Z,29.80
2019-03-23T05:27:37.858Z,29.70
2019-03-23T05:28:43.455Z,28.32
2019-03-23T05:29:49.075Z,29.30
2019-03-23T05:30:54.652Z,28.95
2019-03-23T05:32:00.386Z,28.55
2019-03-23T05:33:06.022Z,27.35
2019-03-23T05:34:11.671Z,25.95
2019-03-23T05:35:17.255Z,25.62
2019-03-23T05:36:22.888Z,26.62
2019-03-23T05:37:28.544Z,24.07
2019-03-23T05:38:43.803Z,23.55
2019-03-23T05:39:41.609Z,23.47
2019-03-23T05:40:47.286Z,24.43
2019-03-23T05:41:52.872Z,23.05
2019-03-23T05:42:58.560Z,23.57
2019-03-23T05:44:04.446Z,23.10
2019-03-23T05:45:10.405Z,22.17
2019-03-23T05:46:16.065Z,21.15
2019-03-23T05:47:21.737Z,21.27
2019-03-23T05:48:27.336Z,20.17
2019-03-23T05:49:33.006Z,21.48
2019-03-23T05:50:38.720Z,20.43
2019-03-23T05:51:44.493Z,20.30
2019-03-23T05:52:50.088Z,20.57
2019-03-23T05:53:55.723Z,22.13
2019-03-23T05:55:01.386Z,20.77
2019-03-23T05:56:07.046Z,19.65
2019-03-23T05:57:12.617Z,19.42
2019-03-23T05:58:18.272Z,18.85
2019-03-23T05:59:23.960Z,19.35
2019-03-23T06:00:29.640Z,17.90
2019-03-23T06:01:35.320Z,17.42
2019-03-23T06:02:40.861Z,19.05
2019-03-23T06:03:46.517Z,17.27
2019-03-23T06:04:52.158Z,18.48
2019-03-23T06:05:57.820Z,18.25
2019-03-23T06:07:03.556Z,17.45
2019-03-23T06:08:09.348Z,17.37
2019-03-23T06:09:14.971Z,17.10
2019-03-23T06:10:20.616Z,18.48
2019-03-23T06:11:26.276Z,17.95
2019-03-23T06:12:31.920Z,19.42
2019-03-23T06:13:37.584Z,18.25
2019-03-23T06:14:43.418Z,18.10
2019-03-23T06:15:49.140Z,17.45
2019-03-23T06:16:54.820Z,19.90
2019-03-23T06:18:00.474Z,19.02
2019-03-23T06:19:06.182Z,20.27
2019-03-23T06:20:11.777Z,19.05
2019-03-23T06:21:17.382Z,19.00
2019-03-23T06:22:22.973Z,18.77
2019-03-23T06:23:28.640Z,17.62
2019-03-23T06:24:34.329Z,18.67
2019-03-23T06:25:40.016Z,18.30
2019-03-23T06:26:45.691Z,17.02
2019-03-23T06:27:51.341Z,19.30
2019-03-23T06:28:57.036Z,18.57
2019-03-23T06:30:02.674Z,17.67
2019-03-23T06:31:08.253Z,18.98
2019-03-23T06:32:13.949Z,18.90
2019-03-23T06:33:19.617Z,18.90
2019-03-23T06:34:25.291Z,18.60
2019-03-23T06:35:31.036Z,20.23
2019-03-23T06:36:36.703Z,18.98
2019-03-23T06:37:42.300Z,17.40
2019-03-23T06:38:47.992Z,17.48
2019-03-23T06:39:59.007Z,18.92
2019-03-23T06:41:04.684Z,17.98
2019-03-23T06:42:10.283Z,18.85
2019-03-23T06:43:15.928Z,16.60
2019-03-23T06:44:21.585Z,17.95
2019-03-23T06:45:27.280Z,18.27
2019-03-23T06:46:32.860Z,16.77
2019-03-23T06:47:38.525Z,18.48
2019-03-23T06:48:44.180Z,18.87
2019-03-23T06:49:49.792Z,17.70
2019-03-23T06:50:55.415Z,18.10
2019-03-23T06:52:02.067Z,18.90
2019-03-23T06:53:07.658Z,17.48
2019-03-23T06:54:13.317Z,18.30
2019-03-23T06:55:18.920Z,18.20
2019-03-23T06:56:24.626Z,17.10
2019-03-23T06:57:30.186Z,18.05
2019-03-23T06:58:35.881Z,17.70
2019-03-23T06:59:41.512Z,18.55
2019-03-23T07:00:47.265Z,17.15
2019-03-23T07:01:52.899Z,16.02
2019-03-23T07:02:59.526Z,18.67
2019-03-23T07:04:05.253Z,18.82
2019-03-23T07:05:11.148Z,21.68
2019-03-23T07:06:16.807Z,19.92
2019-03-23T07:07:23.425Z,20.50
2019-03-23T07:08:32.079Z,19.77
2019-03-23T07:09:36.522Z,17.95
2019-03-23T07:10:43.226Z,18.15
2019-03-23T07:11:48.921Z,17.85
2019-03-23T07:12:54.473Z,19.73
2019-03-23T07:14:00.066Z,18.80
2019-03-23T07:15:06.843Z,21.05
2019-03-23T07:16:12.404Z,20.92
2019-03-23T07:17:18.057Z,18.57
2019-03-23T07:18:23.698Z,17.87
2019-03-23T07:19:29.285Z,18.37
2019-03-23T07:20:34.862Z,17.23
2019-03-23T07:21:40.597Z,17.80
2019-03-23T07:22:46.173Z,18.70
2019-03-23T07:23:51.719Z,19.07
2019-03-23T07:24:57.489Z,18.77
2019-03-23T07:26:03.198Z,18.67
2019-03-23T07:27:08.800Z,17.92
2019-03-23T07:28:14.441Z,16.82
2019-03-23T07:29:20.096Z,18.67
2019-03-23T07:30:25.805Z,17.73
2019-03-23T07:31:31.505Z,17.80
2019-03-23T07:32:37.308Z,17.45
2019-03-23T07:33:43.085Z,17.90
2019-03-23T07:34:48.723Z,17.20
2019-03-23T07:35:54.314Z,18.73
2019-03-23T07:36:59.991Z,17.50
2019-03-23T07:38:05.636Z,17.10
2019-03-23T07:39:11.305Z,17.65
2019-03-23T07:40:16.911Z,16.97
2019-03-23T07:41:22.640Z,17.95
2019-03-23T07:42:28.248Z,18.05
2019-03-23T07:43:33.833Z,18.67
2019-03-23T07:44:39.494Z,18.70
2019-03-23T07:45:45.143Z,18.32
2019-03-23T07:46:50.904Z,17.80
2019-03-23T07:47:56.633Z,17.12
2019-03-23T07:49:03.061Z,16.05
2019-03-23T07:50:08.992Z,18.27
2019-03-23T07:51:14.669Z,18.90
2019-03-23T07:52:20.373Z,17.82
2019-03-23T07:53:26.073Z,16.37
2019-03-23T07:54:31.775Z,18.23
2019-03-23T07:55:37.450Z,17.80
2019-03-23T07:56:42.995Z,17.42
2019-03-23T07:57:48.672Z,16.77
2019-03-23T07:58:54.341Z,16.57
2019-03-23T07:59:59.982Z,16.73
2019-03-23T08:01:06.056Z,19.77
2019-03-23T08:02:11.742Z,16.27
2019-03-23T08:03:17.408Z,18.07
2019-03-23T08:04:23.020Z,17.55
2019-03-23T08:05:28.772Z,18.05
2019-03-23T08:06:53.138Z,17.65
2019-03-23T08:08:09.676Z,17.80
2019-03-23T08:09:37.106Z,18.30
2019-03-23T08:10:46.146Z,17.32
2019-03-23T08:12:02.544Z,16.70
2019-03-23T08:13:19.630Z,17.45
2019-03-23T08:14:36.208Z,17.23
2019-03-23T08:15:54.857Z,15.93
2019-03-23T08:17:11.158Z,17.00
2019-03-23T08:18:27.709Z,16.45
2019-03-23T08:19:44.949Z,16.45
2019-03-23T08:21:01.562Z,16.95
2019-03-23T08:22:18.254Z,16.70
2019-03-23T08:23:35.504Z,16.75
2019-03-23T08:24:52.537Z,18.60
2019-03-23T08:26:09.867Z,16.25
2019-03-23T08:27:26.276Z,16.02
2019-03-23T08:28:42.847Z,16.20
2019-03-23T08:29:59.275Z,15.90
2019-03-23T08:31:15.621Z,16.82
2019-03-23T08:32:32.051Z,17.57
2019-03-23T08:33:47.505Z,15.95
2019-03-23T08:35:12.044Z,17.05
2019-03-23T08:36:28.544Z,16.25
2019-03-23T08:37:45.599Z,18.00
2019-03-23T08:39:03.538Z,17.62
2019-03-23T08:40:20.284Z,17.85
2019-03-23T08:41:36.857Z,16.30
2019-03-23T08:42:55.137Z,16.82
2019-03-23T08:44:11.782Z,16.93
2019-03-23T08:45:28.625Z,17.23
2019-03-23T08:46:46.420Z,16.95
2019-03-23T08:48:02.982Z,16.27
2019-03-23T08:49:20.467Z,16.52
2019-03-23T08:50:36.924Z,18.32
2019-03-23T08:51:53.766Z,16.30
2019-03-23T08:53:10.393Z,16.05
2019-03-23T08:54:27.676Z,17.67
2019-03-23T08:55:44.210Z,17.20
2019-03-23T08:57:01.037Z,17.07
2019-03-23T08:58:17.499Z,17.00
2019-03-23T09:01:08.918Z,19.17
2019-03-23T09:02:25.994Z,17.35
2019-03-23T09:03:51.991Z,17.20
2019-03-23T09:05:01.787Z,18.30
2019-03-23T09:06:18.397Z,19.12
2019-03-23T09:07:35.906Z,18.30
2019-03-23T09:08:52.362Z,17.60
2019-03-23T09:10:09.137Z,19.10
2019-03-23T09:11:25.648Z,18.30
2019-03-23T09:12:42.057Z,18.52
2019-03-23T09:13:58.401Z,18.42
2019-03-23T09:15:14.929Z,20.32
2019-03-23T09:16:31.908Z,19.65
2019-03-23T09:17:48.746Z,21.15
2019-03-23T09:19:05.208Z,20.37
2019-03-23T09:20:22.496Z,17.87
2019-03-23T09:21:38.915Z,18.23
2019-03-23T09:22:55.305Z,20.25
2019-03-23T09:24:12.668Z,19.75
2019-03-23T09:25:30.076Z,19.55
2019-03-23T09:26:46.426Z,19.10
2019-03-23T09:28:02.839Z,18.67
2019-03-23T09:29:19.390Z,19.45
2019-03-23T09:30:36.375Z,20.30
2019-03-23T09:31:52.830Z,19.25
2019-03-23T09:33:09.952Z,19.48
2019-03-23T09:34:26.544Z,22.65
2019-03-23T09:35:43.148Z,20.32
2019-03-23T09:37:00.156Z,22.87
2019-03-23T09:38:16.902Z,21.93
2019-03-23T09:39:34.393Z,20.10
2019-03-23T09:40:50.911Z,20.40
2019-03-23T09:42:07.441Z,22.55
2019-03-23T09:43:24.297Z,20.75
2019-03-23T09:44:41.289Z,22.67
2019-03-23T09:45:58.521Z,22.55
2019-03-23T09:47:15.131Z,19.40
2019-03-23T09:48:31.545Z,23.20
2019-03-23T09:49:47.940Z,22.70
2019-03-23T09:51:04.609Z,23.50
2019-03-23T09:52:21.238Z,23.18
2019-03-23T09:53:37.636Z,24.82
2019-03-23T09:54:54.037Z,22.52
2019-03-23T09:56:10.683Z,22.80
2019-03-23T09:57:27.956Z,24.45
2019-03-23T09:58:44.542Z,23.42
2019-03-23T10:00:00.079Z,21.85
2019-03-23T10:01:24.524Z,23.05
2019-03-23T10:02:49.153Z,23.92
2019-03-23T10:04:05.654Z,18.92
2019-03-23T10:05:22.149Z,23.92
2019-03-23T10:06:39.133Z,23.87
2019-03-23T10:07:55.631Z,23.22
2019-03-23T10:09:12.608Z,24.82
2019-03-23T10:10:29.199Z,25.62
2019-03-23T10:11:45.491Z,25.23
2019-03-23T10:13:01.933Z,24.02
2019-03-23T10:14:18.839Z,23.60
2019-03-23T10:15:35.242Z,23.52
2019-03-23T10:16:51.556Z,22.67
2019-03-23T10:18:08.252Z,23.38
2019-03-23T10:19:23.744Z,23.52
2019-03-23T10:20:48.175Z,22.60
2019-03-23T10:22:05.170Z,23.98
2019-03-23T10:23:20.667Z,24.15
2019-03-23T10:24:45.137Z,24.77
2019-03-23T10:26:21.478Z,25.15
2019-03-23T10:27:38.273Z,23.87
2019-03-23T10:28:54.757Z,23.25
2019-03-23T10:30:12.320Z,25.08
2019-03-23T10:31:29.305Z,24.47
2019-03-23T10:32:44.761Z,25.50
2019-03-23T10:34:09.149Z,26.05
2019-03-23T10:35:25.459Z,26.95
2019-03-23T10:36:42.283Z,24.63
2019-03-23T10:37:58.657Z,25.40
2019-03-23T10:39:15.196Z,25.55
2019-03-23T10:40:32.981Z,24.25
2019-03-23T10:41:50.961Z,26.80
2019-03-23T10:43:07.475Z,24.92
2019-03-23T10:44:24.144Z,26.35
2019-03-23T10:45:44.108Z,25.92
2019-03-23T10:47:05.801Z,24.77
2019-03-23T10:48:22.272Z,27.07
2019-03-23T10:49:38.681Z,27.87
2019-03-23T10:50:55.032Z,27.07
2019-03-23T10:52:11.558Z,26.00
2019-03-23T10:53:28.652Z,27.27
2019-03-23T10:54:45.165Z,25.65
2019-03-23T10:56:01.663Z,27.52
2019-03-23T10:57:18.596Z,26.07
2019-03-23T10:58:35.483Z,27.98
2019-03-23T10:59:52.169Z,26.48
2019-03-23T11:01:09.348Z,26.60
2019-03-23T11:02:25.869Z,28.05
2019-03-23T11:03:42.889Z,27.42
2019-03-23T11:04:59.908Z,27.40
2019-03-23T11:06:16.461Z,29.60
2019-03-23T11:07:31.953Z,25.72
2019-03-23T11:08:56.485Z,27.48
2019-03-23T11:10:13.359Z,27.05
2019-03-23T11:11:29.748Z,25.15
2019-03-23T11:12:46.188Z,26.68
2019-03-23T11:14:02.975Z,27.90
2019-03-23T11:15:19.506Z,26.55
2019-03-23T11:16:35.796Z,26.30
2019-03-23T11:17:52.155Z,27.95
2019-03-23T11:19:13.450Z,26.95
2019-03-23T11:20:27.655Z,26.50
2019-03-23T11:21:44.057Z,26.90
2019-03-23T11:23:00.339Z,27.07
2019-03-23T11:24:17.371Z,29.07
2019-03-23T11:25:34.309Z,26.17
2019-03-23T11:26:50.884Z,25.95
2019-03-23T11:28:07.307Z,29.23
2019-03-23T11:29:24.633Z,27.00
2019-03-23T11:30:41.492Z,26.93
2019-03-23T11:31:58.317Z,27.27
2019-03-23T11:33:14.698Z,26.90
2019-03-23T11:34:31.652Z,28.47
2019-03-23T11:35:57.437Z,27.48
2019-03-23T11:37:05.567Z,27.60
2019-03-23T11:38:30.081Z,26.90
2019-03-23T11:39:46.693Z,25.35
2019-03-23T11:41:03.517Z,26.15
2019-03-23T11:42:19.967Z,27.25
2019-03-23T11:43:36.491Z,27.25
2019-03-23T11:44:53.474Z,27.10
2019-03-23T11:46:10.101Z,28.10
2019-03-23T11:47:27.238Z,27.07
2019-03-23T11:48:44.305Z,27.80
2019-03-23T11:50:00.698Z,28.17
2019-03-23T11:51:17.329Z,27.25
2019-03-23T11:52:32.833Z,27.32
2019-03-23T11:55:57.939Z,27.70
2019-03-23T11:57:14.344Z,29.65
2019-03-23T11:58:30.886Z,29.57
2019-03-23T11:59:49.049Z,28.07
2019-03-23T12:01:06.272Z,29.35
2019-03-23T12:02:23.461Z,28.67
2019-03-23T12:03:39.784Z,29.07
2019-03-23T12:04:57.038Z,28.75
2019-03-23T12:06:12.545Z,28.40
2019-03-23T12:09:13.420Z,28.32
2019-03-23T12:10:29.922Z,28.95
2019-03-23T12:11:47.266Z,29.05
2019-03-23T12:13:04.526Z,30.23
2019-03-23T12:14:21.737Z,29.10
2019-03-23T12:15:42.373Z,28.60
2019-03-23T12:17:00.490Z,28.02
2019-03-23T12:18:17.090Z,28.70
2019-03-23T12:19:33.583Z,30.82
2019-03-23T12:20:50.064Z,27.58
2019-03-23T12:22:06.552Z,28.30
2019-03-23T12:23:23.074Z,27.27
2019-03-23T12:24:39.542Z,26.95
2019-03-23T12:25:56.117Z,28.00
2019-03-23T12:27:12.792Z,28.17
2019-03-23T12:28:30.008Z,28.60
2019-03-23T12:29:46.660Z,28.80
2019-03-23T12:31:03.891Z,29.92
2019-03-23T12:32:20.497Z,28.02
2019-03-23T12:33:37.800Z,27.77
2019-03-23T12:34:54.329Z,28.92
2019-03-23T12:36:10.834Z,28.42
2019-03-23T12:37:27.215Z,28.60
2019-03-23T12:38:44.456Z,29.37
2019-03-23T12:40:01.038Z,27.30
2019-03-23T12:41:23.038Z,27.93
2019-03-23T12:42:37.222Z,28.40
2019-03-23T12:43:53.578Z,24.98
2019-03-23T12:45:09.853Z,25.70
2019-03-23T12:46:26.607Z,24.37
2019-03-23T12:47:42.152Z,24.87
2019-03-23T12:50:47.788Z,25.05
2019-03-23T12:52:05.106Z,26.35
2019-03-23T12:53:21.782Z,25.57
2019-03-23T12:54:39.637Z,24.27
2019-03-23T12:55:56.042Z,23.75
2019-03-23T12:57:12.453Z,27.10
2019-03-23T12:58:29.093Z,27.15
2019-03-23T12:59:45.552Z,27.02
2019-03-23T13:01:02.015Z,27.20
2019-03-23T13:02:18.385Z,27.45
2019-03-23T13:03:35.591Z,25.10
2019-03-23T13:04:52.689Z,26.45
2019-03-23T13:06:09.231Z,25.77
2019-03-23T13:07:26.389Z,24.72
2019-03-23T13:08:43.201Z,24.80
2019-03-23T13:09:59.485Z,24.27
2019-03-23T13:11:23.295Z,24.00
2019-03-23T13:12:35.059Z,24.67
2019-03-23T13:13:51.670Z,25.77
2019-03-23T13:15:08.264Z,24.65
2019-03-23T13:16:25.490Z,25.43
2019-03-23T13:17:42.654Z,25.25
2019-03-23T13:18:59.239Z,26.48
2019-03-23T13:20:16.171Z,25.40
2019-03-23T13:21:32.873Z,26.90
2019-03-23T13:22:49.417Z,25.90
2019-03-23T13:24:06.675Z,27.00
2019-03-23T13:25:23.416Z,25.45
2019-03-23T13:26:39.957Z,25.82
2019-03-23T13:27:55.381Z,26.00
2019-03-23T13:29:12.191Z,26.60
2019-03-23T13:30:28.685Z,29.12
2019-03-23T13:31:45.709Z,27.48
2019-03-23T13:33:02.224Z,27.20
2019-03-23T13:34:18.631Z,25.85
2019-03-23T13:35:35.488Z,26.55
2019-03-23T13:36:52.464Z,26.97
2019-03-23T13:38:08.995Z,26.45
2019-03-23T13:39:25.487Z,26.62
2019-03-23T13:40:41.984Z,27.40
2019-03-23T13:41:58.917Z,27.95
2019-03-23T13:43:15.769Z,25.80
2019-03-23T13:44:32.415Z,25.43
2019-03-23T13:45:48.978Z,27.77
2019-03-23T13:47:05.298Z,27.40
2019-03-23T13:48:21.930Z,27.95
2019-03-23T13:49:38.768Z,26.07
2019-03-23T13:50:56.376Z,27.90
2019-03-23T13:52:12.750Z,26.12
2019-03-23T13:53:29.268Z,27.25
2019-03-23T13:54:45.650Z,26.68
2019-03-23T13:56:02.768Z,27.35
2019-03-23T13:57:19.328Z,26.15
2019-03-23T13:58:35.986Z,26.27
2019-03-23T13:59:52.859Z,26.25
2019-03-23T14:01:09.296Z,27.95
2019-03-23T14:02:25.990Z,28.77
2019-03-23T14:03:42.789Z,28.02
2019-03-23T14:05:02.245Z,27.80
2019-03-23T14:06:19.057Z,28.42
2019-03-23T14:07:36.388Z,29.10
2019-03-23T14:08:52.834Z,27.95
2019-03-23T14:10:09.597Z,27.93
2019-03-23T14:11:26.005Z,27.30
2019-03-23T14:12:42.544Z,27.62
2019-03-23T14:13:58.885Z,27.45
2019-03-23T14:15:15.736Z,27.20
2019-03-23T14:16:32.146Z,26.95
2019-03-23T14:17:48.553Z,27.05
2019-03-23T14:19:05.669Z,28.70
2019-03-23T14:20:22.044Z,27.30
2019-03-23T14:21:38.388Z,27.20
2019-03-23T14:23:02.287Z,26.62
2019-03-23T14:24:13.947Z,27.70
2019-03-23T14:25:30.364Z,27.80
2019-03-23T14:26:45.866Z,27.55
2019-03-23T14:30:05.496Z,28.57
2019-03-23T14:31:20.905Z,27.65
2019-03-23T14:32:45.293Z,27.98
2019-03-23T14:34:02.103Z,26.68
2019-03-23T14:35:18.518Z,28.07
2019-03-23T14:36:34.921Z,26.93
2019-03-23T14:37:52.113Z,26.62
2019-03-23T14:39:08.746Z,28.12
2019-03-23T14:40:25.721Z,27.87
2019-03-23T14:41:42.185Z,27.90
2019-03-23T14:42:58.633Z,26.95
2019-03-23T14:44:15.337Z,27.37
2019-03-23T14:45:30.821Z,26.25
2019-03-23T14:46:47.177Z,29.48
2019-03-23T14:48:02.701Z,26.25
2019-03-23T14:49:27.132Z,28.07
2019-03-23T14:50:43.449Z,26.15
2019-03-23T14:51:59.018Z,27.45
2019-03-23T14:53:24.512Z,27.58
2019-03-23T14:54:40.880Z,27.73
2019-03-23T14:55:57.407Z,25.68
2019-03-23T14:57:13.791Z,25.65
2019-03-23T14:58:29.261Z,27.77
2019-03-23T14:59:53.632Z,28.85
2019-03-23T15:01:10.531Z,26.27
2019-03-23T15:02:26.013Z,25.90
2019-03-23T15:03:50.415Z,28.40
2019-03-23T15:05:07.029Z,26.82
2019-03-23T15:06:25.300Z,26.70
2019-03-23T15:07:41.679Z,26.40
2019-03-23T15:08:58.859Z,29.02
2019-03-23T15:10:14.506Z,26.57
2019-03-23T15:11:38.974Z,27.67
2019-03-23T15:12:55.598Z,27.42
2019-03-23T15:14:12.410Z,27.62
2019-03-23T15:15:29.532Z,28.70
2019-03-23T15:16:46.832Z,30.60
2019-03-23T15:18:03.884Z,30.12
2019-03-23T15:19:21.807Z,30.50
2019-03-23T15:20:38.223Z,26.55
2019-03-23T15:21:55.439Z,26.33
2019-03-23T15:23:12.267Z,28.10
2019-03-23T15:24:29.008Z,28.02
2019-03-23T15:25:46.188Z,29.55
2019-03-23T15:27:03.037Z,29.15
2019-03-23T15:28:20.312Z,29.65
2019-03-23T15:29:36.731Z,29.98
2019-03-23T15:30:53.346Z,28.57
2019-03-23T15:32:08.845Z,29.82
2019-03-23T15:33:33.226Z,30.20
2019-03-23T15:34:57.605Z,29.70
2019-03-23T15:36:14.104Z,29.67
2019-03-23T15:37:31.216Z,29.40
2019-03-23T15:38:47.513Z,30.55
2019-03-23T15:40:05.656Z,30.90
2019-03-23T15:41:22.112Z,28.98
2019-03-23T15:42:38.640Z,29.50